createdAt,value
2018-04-29T00:00:11.944Z,14.20
2018-04-29T00:02:38.456Z,14.40
2018-04-29T00:05:05.027Z,14.40
2018-04-29T00:07:31.581Z,14.40
2018-04-29T00:09:58.090Z,14.30
2018-04-29T00:12:24.623Z,14.20
2018-04-29T00:14:51.171Z,14.20
2018-04-29T00:17:17.683Z,14.20
2018-04-29T00:19:44.255Z,14.20
2018-04-29T00:22:11.164Z,14.10
2018-04-29T00:24:37.676Z,14.00
2018-04-29T00:27:04.247Z,14.00
2018-04-29T00:29:30.832Z,14.10
2018-04-29T00:31:57.335Z,13.90
2018-04-29T00:34:23.871Z,14.00
2018-04-29T00:36:50.418Z,14.00
2018-04-29T00:39:16.951Z,13.90
2018-04-29T00:41:43.504Z,13.90
2018-04-29T00:44:10.078Z,13.90
2018-04-29T00:46:36.588Z,14.00
2018-04-29T00:49:03.184Z,13.90
2018-04-29T00:51:42.043Z,13.70
2018-04-29T00:54:08.634Z,13.60
2018-04-29T00:56:35.175Z,13.70
2018-04-29T00:59:01.799Z,13.70
2018-04-29T01:01:28.282Z,13.80
2018-04-29T01:03:54.862Z,13.80
2018-04-29T01:06:21.369Z,13.90
2018-04-29T01:08:47.919Z,13.90
2018-04-29T01:11:14.463Z,13.60
2018-04-29T01:13:40.967Z,13.30
2018-04-29T01:16:07.503Z,13.30
2018-04-29T01:18:34.047Z,13.50
2018-04-29T01:21:00.571Z,13.50
2018-04-29T01:23:27.107Z,13.50
2018-04-29T01:25:53.647Z,13.40
2018-04-29T01:28:20.150Z,13.40
2018-04-29T01:30:47.060Z,13.10
2018-04-29T01:33:13.598Z,13.10
2018-04-29T01:35:40.140Z,13.00
2018-04-29T01:38:06.687Z,13.10
2018-04-29T01:40:33.231Z,13.10
2018-04-29T01:42:59.742Z,13.20
2018-04-29T01:45:26.644Z,12.90
2018-04-29T01:47:53.183Z,12.90
2018-04-29T01:50:19.752Z,12.70
2018-04-29T01:52:46.304Z,12.70
2018-04-29T01:55:12.838Z,12.80
2018-04-29T01:57:39.339Z,12.90
2018-04-29T02:00:06.267Z,13.10
2018-04-29T02:02:32.817Z,13.10
2018-04-29T02:04:59.329Z,13.00
2018-04-29T02:07:25.902Z,12.90
2018-04-29T02:09:52.426Z,12.90
2018-04-29T02:12:18.943Z,12.90
2018-04-29T02:14:45.474Z,12.90
2018-04-29T02:17:12.376Z,12.90
2018-04-29T02:19:38.882Z,12.90
2018-04-29T02:22:12.860Z,12.90
2018-04-29T02:24:39.434Z,12.90
2018-04-29T02:27:05.947Z,12.90
2018-04-29T02:29:32.491Z,12.90
2018-04-29T02:31:59.019Z,12.90
2018-04-29T02:34:25.535Z,12.80
2018-04-29T02:36:52.453Z,12.90
2018-04-29T02:39:18.984Z,12.90
2018-04-29T02:41:45.499Z,12.90
2018-04-29T02:44:12.036Z,12.90
2018-04-29T02:46:38.954Z,12.80
2018-04-29T02:49:05.485Z,12.80
2018-04-29T02:51:32.055Z,12.80
2018-04-29T02:53:58.587Z,12.80
2018-04-29T02:56:25.107Z,12.80
2018-04-29T02:58:51.650Z,12.80
2018-04-29T03:01:18.187Z,12.80
2018-04-29T03:03:44.697Z,12.80
2018-04-29T03:06:11.596Z,12.80
2018-04-29T03:11:32.320Z,12.80
2018-04-29T03:13:58.855Z,12.80
2018-04-29T03:16:25.725Z,12.70
2018-04-29T03:18:52.333Z,12.70
2018-04-29T03:21:18.872Z,12.60
2018-04-29T03:23:45.375Z,12.60
2018-04-29T03:26:11.915Z,12.60
2018-04-29T03:28:38.468Z,12.60
2018-04-29T03:31:04.963Z,12.50
2018-04-29T03:33:31.491Z,12.40
2018-04-29T03:35:58.007Z,12.40
2018-04-29T03:38:24.515Z,12.40
2018-04-29T03:40:51.046Z,12.40
2018-04-29T03:43:17.599Z,12.40
2018-04-29T03:45:44.117Z,12.40
2018-04-29T03:48:10.665Z,12.40
2018-04-29T03:50:37.243Z,12.40
2018-04-29T03:53:03.752Z,12.40
2018-04-29T03:55:30.327Z,12.40
2018-04-29T03:58:08.963Z,12.40
2018-04-29T04:00:57.454Z,12.40
2018-04-29T04:03:36.538Z,12.10
2018-04-29T04:06:03.171Z,12.10
2018-04-29T04:08:29.723Z,12.20
2018-04-29T04:10:56.243Z,12.20
2018-04-29T04:13:23.177Z,12.30
2018-04-29T04:15:49.756Z,12.30
2018-04-29T04:18:16.263Z,12.30
2018-04-29T04:20:42.808Z,12.40
2018-04-29T04:23:09.352Z,12.30
2018-04-29T04:25:35.892Z,12.30
2018-04-29T04:28:02.436Z,12.30
2018-04-29T04:30:28.968Z,12.30
2018-04-29T04:32:55.474Z,12.30
2018-04-29T04:35:22.396Z,12.20
2018-04-29T04:37:48.932Z,12.20
2018-04-29T04:40:15.488Z,12.30
2018-04-29T04:42:41.994Z,12.40
2018-04-29T04:45:08.539Z,12.50
2018-04-29T04:47:35.063Z,12.40
2018-04-29T04:50:02.021Z,12.70
2018-04-29T04:52:28.967Z,13.00
2018-04-29T04:54:55.850Z,13.20
2018-04-29T04:57:22.402Z,13.20
2018-04-29T04:59:48.975Z,13.40
2018-04-29T05:02:22.479Z,13.50
2018-04-29T05:04:49.010Z,13.70
2018-04-29T05:07:15.577Z,14.00
2018-04-29T05:09:42.084Z,14.10
2018-04-29T05:12:08.984Z,14.70
2018-04-29T05:14:35.503Z,14.70
2018-04-29T05:17:02.047Z,15.10
2018-04-29T05:19:28.600Z,15.20
2018-04-29T05:21:55.095Z,15.20
2018-04-29T05:24:21.680Z,15.00
2018-04-29T05:26:48.232Z,15.30
2018-04-29T05:29:14.755Z,15.50
2018-04-29T05:31:41.331Z,15.70
2018-04-29T05:34:07.879Z,16.00
2018-04-29T05:36:34.384Z,16.10
2018-04-29T05:39:00.948Z,15.90
2018-04-29T05:41:27.864Z,16.20
2018-04-29T05:43:54.379Z,16.20
2018-04-29T05:46:20.924Z,16.40
2018-04-29T05:48:47.485Z,16.50
2018-04-29T05:51:14.018Z,16.50
2018-04-29T05:53:40.571Z,16.60
2018-04-29T05:56:07.111Z,16.70
2018-04-29T05:58:33.645Z,16.70
2018-04-29T06:01:00.211Z,16.70
2018-04-29T06:03:26.884Z,16.90
2018-04-29T06:05:53.417Z,17.00
2018-04-29T06:08:19.956Z,17.20
2018-04-29T06:10:46.519Z,17.30
2018-04-29T06:13:13.024Z,17.30
2018-04-29T06:15:39.981Z,17.50
2018-04-29T06:18:06.947Z,17.60
2018-04-29T06:20:33.507Z,17.60
2018-04-29T06:23:00.039Z,17.60
2018-04-29T06:25:26.588Z,17.70
2018-04-29T06:27:53.095Z,18.00
2018-04-29T06:30:19.643Z,18.10
2018-04-29T06:32:46.174Z,18.30
2018-04-29T06:35:12.687Z,18.40
2018-04-29T06:37:39.219Z,18.40
2018-04-29T06:40:05.800Z,18.60
2018-04-29T06:42:32.345Z,18.60
2018-04-29T06:44:58.883Z,18.10
2018-04-29T06:47:25.428Z,18.10
2018-04-29T06:49:51.933Z,18.30
2018-04-29T06:52:18.912Z,19.00
2018-04-29T06:54:45.467Z,19.10
2018-04-29T06:57:12.019Z,19.30
2018-04-29T06:59:38.584Z,19.50
2018-04-29T07:02:05.131Z,19.50
2018-04-29T07:04:31.635Z,19.60
2018-04-29T07:06:58.559Z,19.40
2018-04-29T07:09:25.108Z,19.40
2018-04-29T07:11:51.620Z,19.20
2018-04-29T07:14:18.177Z,19.10
2018-04-29T07:16:44.719Z,18.90
2018-04-29T07:19:11.228Z,19.30
2018-04-29T07:21:37.772Z,19.60
2018-04-29T07:24:04.687Z,18.90
2018-04-29T07:26:31.223Z,18.90
2018-04-29T07:28:57.792Z,19.00
2018-04-29T07:31:24.343Z,19.30
2018-04-29T07:33:50.852Z,19.90
2018-04-29T07:36:17.436Z,20.50
2018-04-29T07:38:43.981Z,20.50
2018-04-29T07:41:10.519Z,20.50
2018-04-29T07:43:37.059Z,20.70
2018-04-29T07:46:03.605Z,20.50
2018-04-29T07:48:30.116Z,20.50
2018-04-29T07:50:56.667Z,20.40
2018-04-29T07:53:23.243Z,20.60
2018-04-29T07:55:49.747Z,20.80
2018-04-29T07:58:16.296Z,21.10
2018-04-29T08:00:42.920Z,21.00
2018-04-29T08:03:09.794Z,21.50
2018-04-29T08:05:36.344Z,21.50
2018-04-29T08:08:02.955Z,21.60
2018-04-29T08:10:29.879Z,21.60
2018-04-29T08:12:56.443Z,21.60
2018-04-29T08:15:23.031Z,21.90
2018-04-29T08:17:49.571Z,21.90
2018-04-29T08:20:16.127Z,22.00
2018-04-29T08:22:42.793Z,21.90
2018-04-29T08:25:09.273Z,22.20
2018-04-29T08:27:35.835Z,22.00
2018-04-29T08:30:02.955Z,22.30
2018-04-29T08:32:29.499Z,22.30
2018-04-29T08:34:56.066Z,22.70
2018-04-29T08:37:22.646Z,22.90
2018-04-29T08:39:49.536Z,21.90
2018-04-29T08:42:16.127Z,21.90
2018-04-29T08:44:42.696Z,21.80
2018-04-29T08:47:09.633Z,22.20
2018-04-29T08:49:36.210Z,22.20
2018-04-29T08:52:03.293Z,22.80
2018-04-29T08:54:29.864Z,22.80
2018-04-29T08:56:56.539Z,23.00
2018-04-29T08:59:22.927Z,22.10
2018-04-29T09:01:49.614Z,22.40
2018-04-29T09:04:15.975Z,22.40
2018-04-29T09:06:42.346Z,22.60
2018-04-29T09:09:09.042Z,22.80
2018-04-29T09:11:35.390Z,22.80
2018-04-29T09:14:01.778Z,23.00
2018-04-29T09:16:28.506Z,23.30
2018-04-29T09:18:54.886Z,23.30
2018-04-29T09:21:21.627Z,23.20
2018-04-29T09:23:48.330Z,23.20
2018-04-29T09:26:14.694Z,23.20
2018-04-29T09:28:41.042Z,23.50
2018-04-29T09:31:07.362Z,23.70
2018-04-29T09:33:33.713Z,23.50
2018-04-29T09:36:00.089Z,23.80
2018-04-29T09:38:26.414Z,24.00
2018-04-29T09:40:52.782Z,23.60
2018-04-29T09:43:19.554Z,23.90
2018-04-29T09:45:46.226Z,23.80
2018-04-29T09:48:12.584Z,23.80
2018-04-29T09:50:38.946Z,23.40
2018-04-29T09:53:05.302Z,23.50
2018-04-29T09:55:31.658Z,23.50
2018-04-29T09:57:58.382Z,23.30
2018-04-29T10:00:26.686Z,23.30
2018-04-29T10:02:53.156Z,23.40
2018-04-29T10:05:20.277Z,23.50
2018-04-29T10:07:46.765Z,23.50
2018-04-29T10:10:13.472Z,23.30
2018-04-29T10:12:40.295Z,23.50
2018-04-29T10:15:07.105Z,23.60
2018-04-29T10:17:34.912Z,23.50
2018-04-29T10:20:01.620Z,23.40
2018-04-29T10:22:28.053Z,23.30
2018-04-29T10:24:54.506Z,23.10
2018-04-29T10:27:21.077Z,23.40
2018-04-29T10:29:47.584Z,23.50
2018-04-29T10:32:14.167Z,23.10
2018-04-29T10:34:40.950Z,23.00
2018-04-29T10:37:07.322Z,23.00
2018-04-29T10:39:33.784Z,23.10
2018-04-29T10:42:00.516Z,23.10
2018-04-29T10:44:27.180Z,23.30
2018-04-29T10:46:53.669Z,23.60
2018-04-29T10:49:20.158Z,23.80
2018-04-29T10:51:46.462Z,23.80
2018-04-29T10:54:12.875Z,23.70
2018-04-29T10:56:39.364Z,23.70
2018-04-29T10:59:05.698Z,23.90
2018-04-29T11:01:39.142Z,23.50
2018-04-29T11:04:05.482Z,23.70
2018-04-29T11:06:31.843Z,23.60
2018-04-29T11:08:58.174Z,23.50
2018-04-29T11:11:24.518Z,23.50
2018-04-29T11:13:50.885Z,23.40
2018-04-29T11:16:17.221Z,23.50
2018-04-29T11:18:43.561Z,23.70
2018-04-29T11:21:09.982Z,23.70
2018-04-29T11:23:36.323Z,23.70
2018-04-29T11:26:02.666Z,24.00
2018-04-29T11:28:29.017Z,23.90
2018-04-29T11:30:55.374Z,23.90
2018-04-29T11:33:21.726Z,24.00
2018-04-29T11:35:48.030Z,24.40
2018-04-29T11:38:14.589Z,24.60
2018-04-29T11:40:41.176Z,24.90
2018-04-29T11:43:07.656Z,24.90
2018-04-29T11:45:34.189Z,25.20
2018-04-29T11:48:00.724Z,25.40
2018-04-29T11:50:27.591Z,25.10
2018-04-29T11:52:54.129Z,25.10
2018-04-29T11:55:20.684Z,25.10
2018-04-29T11:57:47.199Z,25.50
2018-04-29T12:00:13.780Z,26.00
2018-04-29T12:02:40.473Z,25.90
2018-04-29T12:05:06.843Z,26.00
2018-04-29T12:07:33.749Z,26.60
2018-04-29T12:10:00.269Z,26.60
2018-04-29T12:12:26.773Z,26.90
2018-04-29T12:14:53.308Z,27.30
2018-04-29T12:17:19.872Z,26.80
2018-04-29T12:19:46.382Z,26.90
2018-04-29T12:22:12.903Z,27.20
2018-04-29T12:24:39.500Z,26.80
2018-04-29T12:27:05.989Z,26.60
2018-04-29T12:29:32.888Z,26.30
2018-04-29T12:31:59.424Z,26.30
2018-04-29T12:34:25.946Z,26.30
2018-04-29T12:36:52.502Z,26.70
2018-04-29T12:39:19.031Z,26.90
2018-04-29T12:41:45.894Z,27.30
2018-04-29T12:44:12.440Z,27.30
2018-04-29T12:46:39.034Z,27.60
2018-04-29T12:49:05.512Z,27.80
2018-04-29T12:51:32.412Z,27.80
2018-04-29T12:53:58.947Z,27.80
2018-04-29T12:56:25.448Z,27.90
2018-04-29T12:58:52.008Z,27.80
2018-04-29T13:01:18.939Z,27.30
2018-04-29T13:03:45.459Z,27.30
2018-04-29T13:06:11.986Z,27.40
2018-04-29T13:08:38.512Z,27.80
2018-04-29T13:11:05.399Z,28.30
2018-04-29T13:13:31.939Z,28.20
2018-04-29T13:15:58.493Z,28.10
2018-04-29T13:18:25.003Z,28.40
2018-04-29T13:20:51.947Z,27.60
2018-04-29T13:23:18.475Z,27.60
2018-04-29T13:25:44.984Z,27.90
2018-04-29T13:28:11.515Z,28.10
2018-04-29T13:30:38.047Z,28.30
2018-04-29T13:33:04.915Z,28.40
2018-04-29T13:35:31.448Z,28.40
2018-04-29T13:37:58.367Z,28.20
2018-04-29T13:40:24.868Z,28.20
2018-04-29T13:42:51.407Z,28.30
2018-04-29T13:45:17.956Z,28.20
2018-04-29T13:47:44.474Z,28.00
2018-04-29T13:50:11.012Z,27.80
2018-04-29T13:52:37.544Z,27.80
2018-04-29T13:55:04.055Z,27.80
2018-04-29T13:57:30.595Z,27.80
2018-04-29T13:59:57.134Z,27.80
2018-04-29T14:02:24.031Z,27.60
2018-04-29T14:04:50.632Z,27.60
2018-04-29T14:07:17.559Z,27.90
2018-04-29T14:09:44.075Z,28.00
2018-04-29T14:12:10.602Z,27.90
2018-04-29T14:14:37.145Z,28.00
2018-04-29T14:17:03.651Z,27.90
2018-04-29T14:19:30.212Z,27.80
2018-04-29T14:21:57.119Z,27.40
2018-04-29T14:24:23.643Z,27.40
2018-04-29T14:26:50.177Z,27.30
2018-04-29T14:29:16.715Z,27.10
2018-04-29T14:31:43.579Z,27.20
2018-04-29T14:34:10.124Z,27.10
2018-04-29T14:36:36.706Z,27.20
2018-04-29T14:39:03.339Z,27.50
2018-04-29T14:41:29.898Z,27.80
2018-04-29T14:43:56.435Z,27.90
2018-04-29T14:46:22.935Z,27.70
2018-04-29T14:48:49.470Z,27.70
2018-04-29T14:51:15.962Z,27.50
2018-04-29T14:53:42.508Z,27.30
2018-04-29T14:56:09.067Z,27.10
2018-04-29T14:58:35.587Z,27.10
2018-04-29T15:01:02.541Z,27.10
2018-04-29T15:03:29.427Z,27.10
2018-04-29T15:05:55.971Z,27.10
2018-04-29T15:08:22.539Z,27.10
2018-04-29T15:10:49.037Z,26.50
2018-04-29T15:13:15.952Z,26.50
2018-04-29T15:15:42.459Z,26.50
2018-04-29T15:18:21.255Z,26.50
2018-04-29T15:20:47.841Z,26.70
2018-04-29T15:23:14.341Z,26.80
2018-04-29T15:25:41.001Z,26.90
2018-04-29T15:28:07.443Z,27.00
2018-04-29T15:30:33.992Z,26.80
2018-04-29T15:33:00.519Z,26.70
2018-04-29T15:35:27.455Z,26.50
2018-04-29T15:37:54.055Z,26.50
2018-04-29T15:40:20.560Z,26.50
2018-04-29T15:42:47.089Z,26.50
2018-04-29T15:45:13.675Z,26.60
2018-04-29T15:47:40.191Z,26.60
2018-04-29T15:50:06.740Z,26.70
2018-04-29T15:52:40.335Z,26.60
2018-04-29T15:55:06.867Z,26.60
2018-04-29T15:57:33.398Z,26.50
2018-04-29T16:00:00.267Z,26.40
2018-04-29T16:02:26.832Z,26.40
2018-04-29T16:04:53.335Z,26.10
2018-04-29T16:07:20.258Z,25.90
2018-04-29T16:09:46.787Z,25.90
2018-04-29T16:12:13.287Z,25.90
2018-04-29T16:14:40.199Z,25.60
2018-04-29T16:17:06.706Z,25.60
2018-04-29T16:19:33.268Z,25.70
2018-04-29T16:21:59.803Z,25.80
2018-04-29T16:24:26.306Z,25.80
2018-04-29T16:26:52.843Z,25.80
2018-04-29T16:29:19.352Z,25.70
2018-04-29T16:31:45.887Z,25.60
2018-04-29T16:34:12.479Z,25.40
2018-04-29T16:36:38.988Z,25.40
2018-04-29T16:39:05.555Z,25.40
2018-04-29T16:41:32.059Z,25.30
2018-04-29T16:43:58.958Z,25.20
2018-04-29T16:46:25.500Z,25.20
2018-04-29T16:48:52.003Z,25.20
2018-04-29T16:51:18.923Z,25.00
2018-04-29T16:53:45.428Z,25.00
2018-04-29T16:56:11.968Z,25.00
2018-04-29T16:58:38.548Z,24.90
2018-04-29T17:01:05.088Z,24.80
2018-04-29T17:03:31.618Z,24.70
2018-04-29T17:05:58.127Z,24.70
2018-04-29T17:08:24.691Z,24.70
2018-04-29T17:10:51.595Z,24.70
2018-04-29T17:13:18.096Z,24.70
2018-04-29T17:15:45.016Z,24.70
2018-04-29T17:18:11.558Z,24.70
2018-04-29T17:20:38.065Z,24.70
2018-04-29T17:23:04.620Z,24.70
2018-04-29T17:25:31.138Z,24.70
2018-04-29T17:27:58.055Z,24.70
2018-04-29T17:30:24.587Z,24.70
2018-04-29T17:32:51.131Z,24.70
2018-04-29T17:35:17.672Z,24.70
2018-04-29T17:37:44.261Z,24.70
2018-04-29T17:40:11.203Z,24.60
2018-04-29T17:42:37.708Z,24.60
2018-04-29T17:45:04.264Z,24.50
2018-04-29T17:47:30.820Z,24.40
2018-04-29T17:49:57.371Z,24.40
2018-04-29T17:52:30.969Z,24.30
2018-04-29T17:54:57.502Z,24.20
2018-04-29T17:57:24.051Z,24.10
2018-04-29T17:59:50.624Z,24.00
2018-04-29T18:02:17.151Z,24.00
2018-04-29T18:04:43.755Z,23.80
2018-04-29T18:07:10.331Z,23.70
2018-04-29T18:09:36.835Z,23.60
2018-04-29T18:12:03.451Z,23.60
2018-04-29T18:14:29.949Z,23.50
2018-04-29T18:16:56.483Z,23.40
2018-04-29T18:19:22.999Z,23.30
2018-04-29T18:21:49.531Z,23.20
2018-04-29T18:24:16.063Z,23.10
2018-04-29T18:26:42.570Z,23.10
2018-04-29T18:29:09.103Z,23.00
2018-04-29T18:31:35.616Z,22.90
2018-04-29T18:34:02.143Z,22.80
2018-04-29T18:36:29.052Z,22.70
2018-04-29T18:38:55.606Z,22.70
2018-04-29T18:41:22.218Z,22.60
2018-04-29T18:43:48.759Z,22.50
2018-04-29T18:46:15.287Z,22.50
2018-04-29T18:48:42.213Z,22.40
2018-04-29T18:51:09.278Z,22.30
2018-04-29T18:53:35.712Z,22.30
2018-04-29T18:56:02.235Z,22.20
2018-04-29T18:58:28.787Z,22.00
2018-04-29T19:00:55.335Z,22.00
2018-04-29T19:03:21.876Z,21.90
2018-04-29T19:05:48.534Z,21.80
2018-04-29T19:08:15.035Z,21.80
2018-04-29T19:10:41.601Z,21.70
2018-04-29T19:13:08.187Z,21.50
2018-04-29T19:15:34.731Z,21.40
2018-04-29T19:18:02.286Z,21.30
2018-04-29T19:20:28.796Z,21.20
2018-04-29T19:22:55.403Z,21.10
2018-04-29T19:25:21.952Z,21.10
2018-04-29T19:27:48.519Z,21.10
2018-04-29T19:30:15.455Z,20.90
2018-04-29T19:32:42.378Z,20.80
2018-04-29T19:35:08.929Z,20.80
2018-04-29T19:37:35.480Z,20.70
2018-04-29T19:40:01.999Z,20.70
2018-04-29T19:42:28.674Z,20.60
2018-04-29T19:44:55.238Z,20.50
2018-04-29T19:47:21.779Z,20.50
2018-04-29T19:49:48.360Z,20.50
2018-04-29T19:52:15.300Z,20.60
2018-04-29T19:54:41.847Z,20.60
2018-04-29T19:57:08.466Z,20.50
2018-04-29T19:59:35.012Z,20.50
2018-04-29T20:02:01.717Z,20.50
2018-04-29T20:04:28.678Z,20.50
2018-04-29T20:06:55.248Z,20.50
2018-04-29T20:09:21.759Z,20.40
2018-04-29T20:11:48.694Z,20.20
2018-04-29T20:14:15.211Z,20.20
2018-04-29T20:16:41.759Z,20.10
2018-04-29T20:19:08.280Z,20.10
2018-04-29T20:21:34.835Z,19.90
2018-04-29T20:24:01.341Z,19.90
2018-04-29T20:26:27.899Z,19.80
2018-04-29T20:28:54.828Z,19.60
2018-04-29T20:31:21.331Z,19.60
2018-04-29T20:33:47.898Z,19.50
2018-04-29T20:36:14.416Z,19.50
2018-04-29T20:38:40.967Z,19.30
2018-04-29T20:41:07.555Z,19.10
2018-04-29T20:43:34.075Z,19.10
2018-04-29T20:46:00.632Z,19.20
2018-04-29T20:48:27.222Z,19.30
2018-04-29T20:50:54.195Z,19.30
2018-04-29T20:53:21.263Z,19.40
2018-04-29T20:55:48.025Z,19.40
2018-04-29T20:58:14.834Z,19.40
2018-04-29T21:00:41.510Z,19.30
2018-04-29T21:03:10.125Z,19.20
2018-04-29T21:05:37.253Z,19.20
2018-04-29T21:08:04.040Z,19.00
2018-04-29T21:10:30.636Z,18.90
2018-04-29T21:12:57.155Z,18.90
2018-04-29T21:15:23.739Z,18.80
2018-04-29T21:17:50.279Z,18.70
2018-04-29T21:20:16.792Z,18.60
2018-04-29T21:22:43.340Z,18.60
2018-04-29T21:25:09.857Z,18.60
2018-04-29T21:27:36.597Z,18.60
2018-04-29T21:30:03.578Z,18.70
2018-04-29T21:32:30.123Z,18.70
2018-04-29T21:34:56.676Z,18.70
2018-04-29T21:37:23.188Z,18.70
2018-04-29T21:39:50.099Z,18.80
2018-04-29T21:42:16.643Z,18.80
2018-04-29T21:44:43.154Z,18.80
2018-04-29T21:47:09.688Z,18.80
2018-04-29T21:49:36.576Z,18.90
2018-04-29T21:52:03.168Z,18.90
2018-04-29T21:54:29.711Z,18.70
2018-04-29T21:56:56.227Z,18.70
2018-04-29T21:59:22.759Z,18.60
2018-04-29T22:01:49.340Z,18.50
2018-04-29T22:04:16.001Z,18.40
2018-04-29T22:06:42.503Z,18.30
2018-04-29T22:09:09.022Z,18.30
2018-04-29T22:11:35.939Z,18.30
2018-04-29T22:14:02.466Z,18.30
2018-04-29T22:16:29.009Z,18.40
2018-04-29T22:18:55.556Z,18.40
2018-04-29T22:21:22.076Z,18.30
2018-04-29T22:23:48.621Z,18.20
2018-04-29T22:26:15.148Z,18.30
2018-04-29T22:28:41.695Z,18.30
2018-04-29T22:31:08.643Z,18.30
2018-04-29T22:33:35.155Z,18.30
2018-04-29T22:36:02.140Z,18.20
2018-04-29T22:38:28.667Z,18.20
2018-04-29T22:40:55.228Z,18.20
2018-04-29T22:43:21.782Z,18.10
2018-04-29T22:45:48.305Z,18.10
2018-04-29T22:48:14.848Z,18.10
2018-04-29T22:50:41.386Z,18.20
2018-04-29T22:53:08.002Z,18.20
2018-04-29T22:55:34.924Z,18.10
2018-04-29T22:58:01.467Z,18.10
2018-04-29T23:00:35.016Z,18.10
2018-04-29T23:03:01.523Z,18.10
2018-04-29T23:05:28.104Z,18.10
2018-04-29T23:07:55.020Z,18.10
2018-04-29T23:10:21.534Z,18.10
2018-04-29T23:12:48.077Z,18.20
2018-04-29T23:15:14.598Z,18.30
2018-04-29T23:17:41.515Z,18.50
2018-04-29T23:20:08.068Z,18.40
2018-04-29T23:22:34.598Z,18.50
2018-04-29T23:25:01.143Z,18.50
2018-04-29T23:27:27.671Z,18.40
2018-04-29T23:29:54.211Z,18.30
2018-04-29T23:32:20.750Z,18.30
2018-04-29T23:34:47.264Z,18.20
2018-04-29T23:37:13.812Z,18.00
2018-04-29T23:39:40.320Z,17.90
2018-04-29T23:42:06.871Z,17.80
2018-04-29T23:44:33.402Z,17.80
2018-04-29T23:46:59.903Z,17.80
2018-04-29T23:49:26.819Z,17.90
2018-04-29T23:51:53.331Z,17.90
2018-04-29T23:54:19.947Z,17.90
2018-04-29T23:56:46.460Z,17.90
2018-04-29T23:59:12.988Z,17.90
